Terminal Aerodrome Forecast
Issued by NWS Greer, SC

Home | Current Version | Previous Version | Text Only | Print | Product List | Glossary On
Versions: 1 2 3 4 5 6 7 8 9 10 11 12
000
FTUS42 KGSP 311120
TAFGSP
TAF
KGSP 311120Z 3112/0112 25004KT P6SM FEW200
      TEMPO 3112/3114 35005KT
     FM312000 21007KT P6SM SCT140
     FM010200 21003KT P6SM BKN120=

USA.gov is the U.S. government's official web portal to all federal, state and local government web resources and services.